createdAt,value
2019-04-29T00:01:51.095Z,3.77
2019-04-29T00:04:17.987Z,2.25
2019-04-29T00:06:45.090Z,2.08
2019-04-29T00:09:16.122Z,1.75
2019-04-29T00:11:43.678Z,1.27
2019-04-29T00:14:10.842Z,1.10
2019-04-29T00:16:37.830Z,1.30
2019-04-29T00:19:08.067Z,1.20
2019-04-29T00:21:35.366Z,1.10
2019-04-29T00:24:04.584Z,1.10
2019-04-29T00:26:33.611Z,0.88
2019-04-29T00:29:00.572Z,0.70
2019-04-29T00:31:29.146Z,0.80
2019-04-29T00:33:56.107Z,0.85
2019-04-29T00:36:25.315Z,0.60
2019-04-29T00:38:52.815Z,0.72
2019-04-29T00:41:25.462Z,0.62
2019-04-29T00:43:57.684Z,0.68
2019-04-29T00:46:25.040Z,0.90
2019-04-29T00:48:52.507Z,1.07
2019-04-29T00:51:19.503Z,1.30
2019-04-29T00:53:48.033Z,1.50
2019-04-29T00:56:15.381Z,1.95
2019-04-29T00:58:42.446Z,1.70
2019-04-29T01:01:12.347Z,1.87
2019-04-29T01:03:41.143Z,1.80
2019-04-29T01:06:08.826Z,2.10
2019-04-29T01:08:36.251Z,1.80
2019-04-29T01:11:03.543Z,1.27
2019-04-29T01:13:30.806Z,0.90
2019-04-29T01:15:58.008Z,0.80
2019-04-29T01:18:25.563Z,0.70
2019-04-29T01:20:52.958Z,0.60
2019-04-29T01:23:22.445Z,0.60
2019-04-29T01:25:51.722Z,0.98
2019-04-29T01:28:18.975Z,0.82
2019-04-29T01:30:58.251Z,0.80
2019-04-29T01:33:25.855Z,0.80
2019-04-29T01:36:04.355Z,0.90
2019-04-29T01:38:31.367Z,0.65
2019-04-29T01:41:04.594Z,0.57
2019-04-29T01:43:49.959Z,0.50
2019-04-29T01:46:17.195Z,0.70
2019-04-29T01:48:44.764Z,1.00
2019-04-29T01:51:11.847Z,0.60
2019-04-29T01:53:39.031Z,0.68
2019-04-29T01:56:06.582Z,0.80
2019-04-29T01:58:33.775Z,0.55
2019-04-29T02:01:01.966Z,0.40
2019-04-29T02:03:29.570Z,0.50
2019-04-29T02:05:56.989Z,0.50
2019-04-29T02:08:24.199Z,0.50
2019-04-29T02:10:51.394Z,0.60
2019-04-29T02:13:19.864Z,0.70
2019-04-29T02:15:46.767Z,1.20
2019-04-29T02:18:13.683Z,0.80
2019-04-29T02:20:40.780Z,0.90
2019-04-29T02:23:12.189Z,0.80
2019-04-29T02:25:40.956Z,1.02
2019-04-29T02:28:07.850Z,0.80
2019-04-29T02:30:44.540Z,1.10
2019-04-29T02:33:11.705Z,1.15
2019-04-29T02:35:39.411Z,1.00
2019-04-29T02:38:08.332Z,1.25
2019-04-29T02:40:54.661Z,1.20
2019-04-29T02:43:29.907Z,1.07
2019-04-29T02:45:57.295Z,0.98
2019-04-29T02:48:29.104Z,0.93
2019-04-29T02:50:54.653Z,0.90
2019-04-29T02:53:21.670Z,0.90
2019-04-29T02:55:50.424Z,0.93
2019-04-29T02:58:22.057Z,1.60
2019-04-29T03:01:08.506Z,1.30
2019-04-29T03:06:05.201Z,2.37
2019-04-29T03:08:32.716Z,1.87
2019-04-29T03:11:00.231Z,1.65
2019-04-29T03:13:27.247Z,2.08
2019-04-29T03:15:54.449Z,2.40
2019-04-29T03:18:24.024Z,3.17
2019-04-29T03:20:53.761Z,2.83
2019-04-29T03:23:23.251Z,3.35
2019-04-29T03:25:50.486Z,3.20
2019-04-29T03:28:17.678Z,3.33
2019-04-29T03:30:45.381Z,3.15
2019-04-29T03:33:12.734Z,3.47
2019-04-29T03:35:39.823Z,3.10
2019-04-29T03:38:07.475Z,3.47
2019-04-29T03:40:34.777Z,2.72
2019-04-29T03:43:02.095Z,2.42
2019-04-29T03:45:29.663Z,2.50
2019-04-29T03:47:56.771Z,3.02
2019-04-29T03:50:23.673Z,2.75
2019-04-29T03:52:50.527Z,2.80
2019-04-29T03:55:17.532Z,2.70
2019-04-29T03:57:45.179Z,2.35
2019-04-29T04:00:16.179Z,2.62
2019-04-29T04:02:46.215Z,2.30
2019-04-29T04:05:24.349Z,2.58
2019-04-29T04:07:59.153Z,3.02
2019-04-29T04:10:26.362Z,3.12
2019-04-29T04:12:53.558Z,3.30
2019-04-29T04:15:20.932Z,3.27
2019-04-29T04:17:50.064Z,3.50
2019-04-29T04:20:16.916Z,3.02
2019-04-29T04:22:47.274Z,1.32
2019-04-29T04:25:20.076Z,1.80
2019-04-29T04:27:46.958Z,1.30
2019-04-29T04:30:15.954Z,1.40
2019-04-29T04:32:43.572Z,1.52
2019-04-29T04:35:11.247Z,1.50
2019-04-29T04:37:38.298Z,1.37
2019-04-29T04:40:08.994Z,1.12
2019-04-29T04:42:36.153Z,1.10
2019-04-29T04:45:07.124Z,1.00
2019-04-29T04:47:34.232Z,1.20
2019-04-29T04:50:03.657Z,1.20
2019-04-29T04:52:31.379Z,1.55
2019-04-29T04:54:58.879Z,1.50
2019-04-29T04:57:25.791Z,3.22
2019-04-29T04:59:52.711Z,4.37
2019-04-29T05:02:21.695Z,3.52
2019-04-29T05:04:48.875Z,2.90
2019-04-29T05:07:16.031Z,1.92
2019-04-29T05:09:43.026Z,1.77
2019-04-29T05:12:10.463Z,2.67
2019-04-29T05:14:38.050Z,2.70
2019-04-29T05:17:05.343Z,2.70
2019-04-29T05:19:32.326Z,3.87
2019-04-29T05:21:59.387Z,4.58
2019-04-29T05:24:30.009Z,4.65
2019-04-29T05:26:57.162Z,4.78
2019-04-29T05:29:24.351Z,3.85
2019-04-29T05:31:51.222Z,4.37
2019-04-29T05:34:20.031Z,4.05
2019-04-29T05:36:48.942Z,3.83
2019-04-29T05:39:17.852Z,4.05
2019-04-29T05:41:45.062Z,3.20
2019-04-29T05:44:20.681Z,3.70
2019-04-29T05:46:52.655Z,3.10
2019-04-29T05:49:21.599Z,3.20
2019-04-29T05:51:53.238Z,3.08
2019-04-29T05:54:22.144Z,2.50
2019-04-29T05:56:49.777Z,3.60
2019-04-29T05:59:16.859Z,4.65
2019-04-29T06:01:47.181Z,4.78
2019-04-29T06:04:16.347Z,5.10
2019-04-29T06:06:42.698Z,5.40
2019-04-29T06:09:11.573Z,4.97
2019-04-29T06:11:38.762Z,4.35
2019-04-29T06:14:06.378Z,4.28
2019-04-29T06:16:33.783Z,4.12
2019-04-29T06:19:05.578Z,4.25
2019-04-29T06:21:29.660Z,2.77
2019-04-29T06:23:59.490Z,3.00
2019-04-29T06:26:25.523Z,2.98
2019-04-29T06:28:52.755Z,2.30
2019-04-29T06:31:19.996Z,2.20
2019-04-29T06:33:47.382Z,2.37
2019-04-29T06:36:14.639Z,1.87
2019-04-29T06:38:41.658Z,2.12
2019-04-29T06:41:09.756Z,2.10
2019-04-29T06:43:37.488Z,1.77
2019-04-29T06:46:04.518Z,1.57
2019-04-29T06:48:31.667Z,1.40
2019-04-29T06:50:59.255Z,1.70
2019-04-29T06:53:26.320Z,1.50
2019-04-29T06:55:53.515Z,2.37
2019-04-29T06:58:20.318Z,2.40
2019-04-29T07:00:50.757Z,2.85
2019-04-29T07:03:20.896Z,1.72
2019-04-29T07:05:46.075Z,2.12
2019-04-29T07:08:13.491Z,2.50
2019-04-29T07:10:40.457Z,2.08
2019-04-29T07:13:07.395Z,5.00
2019-04-29T07:15:34.701Z,5.85
2019-04-29T07:18:01.678Z,5.03
2019-04-29T07:20:32.525Z,4.45
2019-04-29T07:23:00.754Z,3.20
2019-04-29T07:25:28.697Z,3.47
2019-04-29T07:27:55.639Z,3.25
2019-04-29T07:30:22.747Z,3.10
2019-04-29T07:32:50.431Z,3.15
2019-04-29T07:35:17.468Z,3.10
2019-04-29T07:37:44.598Z,4.37
2019-04-29T07:40:12.231Z,5.33
2019-04-29T07:42:39.584Z,5.70
2019-04-29T07:45:16.423Z,6.67
2019-04-29T07:47:56.365Z,9.43
2019-04-29T07:50:15.714Z,4.50
2019-04-29T07:52:45.595Z,3.15
2019-04-29T07:55:12.070Z,2.92
2019-04-29T07:57:39.138Z,3.08
2019-04-29T08:00:08.539Z,4.03
2019-04-29T08:02:36.510Z,3.90
2019-04-29T08:05:06.738Z,4.60
2019-04-29T08:07:35.355Z,4.33
2019-04-29T08:10:05.104Z,3.42
2019-04-29T08:12:33.432Z,3.83
2019-04-29T08:15:07.804Z,3.70
2019-04-29T08:17:34.557Z,3.42
2019-04-29T08:20:05.172Z,3.47
2019-04-29T08:22:31.724Z,10.03
2019-04-29T08:24:58.787Z,9.70
2019-04-29T08:27:39.072Z,8.75
2019-04-29T08:29:54.750Z,4.53
2019-04-29T08:32:21.711Z,3.20
2019-04-29T08:34:49.553Z,3.77
2019-04-29T08:37:16.872Z,3.87
2019-04-29T08:39:44.535Z,4.37
2019-04-29T08:42:16.679Z,4.05
2019-04-29T08:45:03.722Z,4.12
2019-04-29T08:47:32.532Z,4.62
2019-04-29T08:49:59.759Z,3.58
2019-04-29T08:52:26.862Z,3.60
2019-04-29T08:54:55.295Z,3.75
2019-04-29T08:57:22.875Z,3.70
2019-04-29T08:59:49.951Z,3.50
2019-04-29T09:02:17.158Z,3.77
2019-04-29T09:04:53.324Z,3.90
2019-04-29T09:07:17.382Z,3.92
2019-04-29T09:09:42.765Z,3.62
2019-04-29T09:12:10.103Z,5.15
2019-04-29T09:14:37.371Z,5.12
2019-04-29T09:17:09.030Z,5.90
2019-04-29T09:19:33.449Z,4.10
2019-04-29T09:22:02.403Z,5.20
2019-04-29T09:24:29.415Z,4.50
2019-04-29T09:27:05.031Z,3.77
2019-04-29T09:29:34.431Z,5.37
2019-04-29T09:32:02.147Z,5.62
2019-04-29T09:34:29.360Z,4.75
2019-04-29T09:36:56.464Z,5.20
2019-04-29T09:39:23.678Z,5.40
2019-04-29T09:41:53.378Z,5.47
2019-04-29T09:44:41.101Z,5.60
2019-04-29T09:47:10.285Z,5.87
2019-04-29T09:49:37.591Z,5.70
2019-04-29T09:52:04.918Z,6.22
2019-04-29T09:54:31.823Z,4.60
2019-04-29T09:56:58.879Z,6.28
2019-04-29T09:59:28.393Z,5.75
2019-04-29T10:02:15.387Z,5.37
2019-04-29T10:04:56.671Z,4.95
2019-04-29T10:07:19.624Z,5.78
2019-04-29T10:09:57.000Z,5.42
2019-04-29T10:12:15.582Z,4.85
2019-04-29T10:14:42.906Z,4.95
2019-04-29T10:17:15.445Z,5.28
2019-04-29T10:19:43.879Z,4.72
2019-04-29T10:22:10.987Z,4.80
2019-04-29T10:24:38.048Z,6.05
2019-04-29T10:27:07.244Z,5.55
2019-04-29T10:29:34.597Z,5.40
2019-04-29T10:32:02.428Z,6.55
2019-04-29T10:34:32.930Z,7.85
2019-04-29T10:37:00.796Z,15.13
2019-04-29T10:39:27.618Z,79.60
2019-04-29T10:41:56.265Z,37.10
2019-04-29T10:44:41.936Z,5.70
2019-04-29T10:47:13.904Z,7.05
2019-04-29T10:49:58.094Z,58.75
2019-04-29T10:52:26.083Z,8.73
2019-04-29T10:54:55.214Z,5.00
2019-04-29T10:57:22.883Z,4.72
2019-04-29T10:59:55.428Z,5.35
2019-04-29T11:02:24.430Z,5.75
2019-04-29T11:12:26.221Z,9.80
2019-04-29T11:14:53.449Z,5.30
2019-04-29T11:17:22.595Z,6.62
2019-04-29T11:19:49.899Z,8.85
2019-04-29T11:22:19.075Z,6.10
2019-04-29T11:25:04.585Z,5.12
2019-04-29T11:27:50.388Z,5.37
2019-04-29T11:30:22.490Z,6.22
2019-04-29T11:32:51.617Z,8.00
2019-04-29T11:35:37.457Z,12.58
2019-04-29T11:38:07.693Z,11.50
2019-04-29T11:40:42.981Z,11.53
2019-04-29T11:43:06.076Z,14.78
2019-04-29T11:45:37.947Z,12.30
2019-04-29T11:48:03.062Z,8.48
2019-04-29T11:50:32.154Z,8.60
2019-04-29T11:52:59.168Z,8.40
2019-04-29T11:55:26.512Z,7.03
2019-04-29T11:57:55.456Z,6.65
2019-04-29T12:00:24.655Z,6.60
2019-04-29T12:02:56.086Z,6.45
2019-04-29T12:05:28.008Z,7.72
2019-04-29T12:07:55.571Z,6.25
2019-04-29T12:10:23.108Z,5.70
2019-04-29T12:12:50.986Z,5.05
2019-04-29T12:15:23.215Z,5.20
2019-04-29T12:18:08.602Z,9.95
2019-04-29T12:20:40.618Z,6.83
2019-04-29T12:23:11.172Z,6.12
2019-04-29T12:25:36.788Z,6.45
2019-04-29T12:28:12.498Z,6.72
2019-04-29T12:30:37.355Z,7.00
2019-04-29T12:33:04.379Z,6.78
2019-04-29T12:35:51.012Z,6.12
2019-04-29T12:38:39.363Z,6.35
2019-04-29T12:41:01.227Z,8.40
2019-04-29T12:43:32.323Z,15.63
2019-04-29T12:46:10.172Z,12.63
2019-04-29T12:48:38.805Z,12.88
2019-04-29T12:51:05.497Z,13.13
2019-04-29T12:53:32.611Z,11.38
2019-04-29T12:56:00.074Z,11.75
2019-04-29T12:58:27.174Z,13.32
2019-04-29T13:01:01.072Z,12.80
2019-04-29T13:03:30.966Z,13.72
2019-04-29T13:06:23.720Z,15.78
2019-04-29T13:08:47.897Z,17.20
2019-04-29T13:11:19.179Z,15.05
2019-04-29T13:13:44.668Z,14.18
2019-04-29T13:16:21.980Z,11.40
2019-04-29T13:19:10.637Z,14.13
2019-04-29T13:21:26.045Z,22.48
2019-04-29T13:24:04.932Z,17.92
2019-04-29T13:26:28.145Z,14.90
2019-04-29T13:29:00.241Z,13.15
2019-04-29T13:31:20.334Z,15.10
2019-04-29T13:33:50.868Z,14.38
2019-04-29T13:36:19.718Z,15.05
2019-04-29T13:38:46.562Z,15.35
2019-04-29T13:41:14.270Z,15.20
2019-04-29T13:43:42.581Z,14.03
2019-04-29T13:46:12.583Z,13.13
2019-04-29T13:49:06.439Z,12.33
2019-04-29T13:51:47.163Z,14.75
2019-04-29T13:54:14.211Z,17.17
2019-04-29T13:56:55.471Z,15.35
2019-04-29T13:59:12.596Z,26.30
2019-04-29T14:02:04.421Z,34.53
2019-04-29T14:04:29.668Z,42.85
2019-04-29T14:06:57.665Z,22.98
2019-04-29T14:09:25.035Z,35.98
2019-04-29T14:12:01.743Z,27.95
2019-04-29T14:14:22.643Z,22.45
2019-04-29T14:16:49.949Z,22.80
2019-04-29T14:19:20.545Z,16.25
2019-04-29T14:21:46.046Z,17.80
2019-04-29T14:24:13.187Z,46.68
2019-04-29T14:26:42.015Z,40.38
2019-04-29T14:29:08.994Z,56.92
2019-04-29T14:31:35.927Z,72.70
2019-04-29T14:34:05.300Z,29.77
2019-04-29T14:36:32.323Z,28.70
2019-04-29T14:38:59.238Z,42.00
2019-04-29T14:41:28.362Z,44.85
2019-04-29T14:44:00.006Z,21.20
2019-04-29T14:46:34.968Z,26.10
2019-04-29T14:49:10.371Z,20.65
2019-04-29T14:51:38.100Z,23.02
2019-04-29T14:54:06.128Z,25.77
2019-04-29T14:56:34.298Z,37.05
2019-04-29T14:59:06.856Z,30.02
2019-04-29T15:01:38.852Z,19.42
2019-04-29T15:04:17.920Z,21.25
2019-04-29T15:06:37.378Z,16.85
2019-04-29T15:09:16.736Z,21.62
2019-04-29T15:11:41.158Z,20.40
2019-04-29T15:14:27.991Z,23.85
2019-04-29T15:19:49.396Z,40.65
2019-04-29T15:22:27.026Z,36.23
2019-04-29T15:24:53.950Z,27.37
2019-04-29T15:27:21.139Z,24.18
2019-04-29T15:29:48.140Z,20.85
2019-04-29T15:32:17.943Z,21.90
2019-04-29T15:34:48.149Z,19.65
2019-04-29T15:37:13.642Z,19.55
2019-04-29T15:39:45.334Z,18.65
2019-04-29T15:42:09.981Z,35.00
2019-04-29T15:44:37.222Z,30.50
2019-04-29T15:47:04.209Z,24.67
2019-04-29T15:49:31.337Z,15.55
2019-04-29T15:51:58.249Z,18.60
2019-04-29T15:54:26.187Z,18.00
2019-04-29T15:56:54.159Z,27.90
2019-04-29T15:59:21.181Z,24.02
2019-04-29T16:01:48.088Z,35.65
2019-04-29T16:04:20.744Z,32.58
2019-04-29T16:06:48.135Z,43.40
2019-04-29T16:12:05.112Z,59.67
2019-04-29T16:14:30.042Z,51.68
2019-04-29T16:16:57.267Z,72.12
2019-04-29T16:19:24.099Z,87.10
2019-04-29T16:21:51.021Z,76.85
2019-04-29T16:24:26.213Z,87.10
2019-04-29T16:26:53.239Z,55.80
2019-04-29T16:29:15.976Z,44.30
2019-04-29T16:31:42.767Z,28.15
2019-04-29T16:34:09.811Z,29.98
2019-04-29T16:36:36.685Z,29.87
2019-04-29T16:39:05.018Z,33.20
2019-04-29T16:41:35.578Z,26.33
2019-04-29T16:44:05.116Z,28.95
2019-04-29T16:46:37.579Z,22.22
2019-04-29T16:49:02.867Z,20.25
2019-04-29T16:51:29.892Z,22.15
2019-04-29T16:53:57.632Z,23.62
2019-04-29T16:56:24.546Z,23.90
2019-04-29T16:58:51.612Z,38.67
2019-04-29T17:01:18.726Z,28.32
2019-04-29T17:03:45.774Z,28.42
2019-04-29T17:06:12.889Z,29.55
2019-04-29T17:08:50.660Z,31.10
2019-04-29T17:11:27.328Z,34.73
2019-04-29T17:13:54.427Z,31.97
2019-04-29T17:16:23.271Z,30.20
2019-04-29T17:18:50.193Z,27.73
2019-04-29T17:21:17.396Z,29.65
2019-04-29T17:23:44.336Z,32.45
2019-04-29T17:26:11.351Z,29.42
2019-04-29T17:28:46.730Z,30.05
2019-04-29T17:31:30.705Z,28.77
2019-04-29T17:34:00.127Z,26.80
2019-04-29T17:35:17.187Z,61.02
2019-04-29T17:36:27.913Z,24.00
2019-04-29T17:38:54.935Z,24.63
2019-04-29T17:41:21.888Z,28.12
2019-04-29T17:43:48.708Z,31.52
2019-04-29T17:46:28.046Z,34.73
2019-04-29T17:49:05.927Z,37.53
2019-04-29T17:51:34.035Z,37.45
2019-04-29T17:54:05.237Z,35.50
2019-04-29T17:56:32.192Z,30.52
2019-04-29T17:59:01.699Z,27.87
2019-04-29T18:01:28.691Z,26.97
2019-04-29T18:03:55.852Z,28.25
2019-04-29T18:06:28.349Z,28.20
2019-04-29T18:09:15.813Z,29.18
2019-04-29T18:11:51.868Z,29.82
2019-04-29T18:14:12.071Z,29.55
2019-04-29T18:16:43.697Z,42.43
2019-04-29T18:19:18.967Z,53.70
2019-04-29T18:22:07.199Z,51.60
2019-04-29T18:24:38.584Z,39.48
2019-04-29T18:27:16.332Z,40.28
2019-04-29T18:29:43.475Z,48.02
2019-04-29T18:32:10.479Z,47.27
2019-04-29T18:34:37.654Z,47.05
2019-04-29T18:37:06.537Z,41.15
2019-04-29T18:39:33.699Z,30.12
2019-04-29T18:42:03.084Z,32.83
2019-04-29T18:44:29.631Z,34.70
2019-04-29T18:46:57.366Z,39.18
2019-04-29T18:49:25.833Z,56.20
2019-04-29T18:51:52.828Z,52.40
2019-04-29T18:54:20.249Z,48.40
2019-04-29T18:56:47.335Z,50.65
2019-04-29T18:59:17.882Z,48.20
2019-04-29T19:01:45.042Z,33.58
2019-04-29T19:04:19.088Z,33.80
2019-04-29T19:06:46.131Z,31.35
2019-04-29T19:09:18.554Z,40.03
2019-04-29T19:11:42.914Z,50.20
2019-04-29T19:14:10.022Z,51.80
2019-04-29T19:16:39.362Z,38.78
2019-04-29T19:19:05.899Z,30.75
2019-04-29T19:21:33.026Z,27.80
2019-04-29T19:24:00.725Z,35.60
2019-04-29T19:26:28.051Z,46.45
2019-04-29T19:28:56.417Z,41.10
2019-04-29T19:31:25.182Z,63.38
2019-04-29T19:33:52.519Z,50.03
2019-04-29T19:36:21.748Z,50.15
2019-04-29T19:38:49.459Z,36.13
2019-04-29T19:41:18.094Z,58.15
2019-04-29T19:43:48.304Z,49.20
2019-04-29T19:46:22.545Z,46.05
2019-04-29T19:48:44.998Z,42.00
2019-04-29T19:51:16.025Z,40.95
2019-04-29T19:53:43.557Z,35.65
2019-04-29T19:56:12.642Z,23.12
2019-04-29T19:58:39.892Z,21.97
2019-04-29T20:01:13.434Z,24.70
2019-04-29T20:03:41.705Z,24.05
2019-04-29T20:06:14.072Z,23.57
2019-04-29T20:08:51.051Z,23.73
2019-04-29T20:11:14.039Z,25.65
2019-04-29T20:13:40.195Z,22.75
2019-04-29T20:16:17.932Z,24.75
2019-04-29T20:18:57.772Z,27.70
2019-04-29T20:23:27.470Z,37.10
2019-04-29T20:23:46.297Z,36.08
2019-04-29T20:26:29.715Z,34.98
2019-04-29T20:28:57.019Z,40.45
2019-04-29T20:31:26.071Z,34.63
2019-04-29T20:33:53.545Z,29.82
2019-04-29T20:36:33.011Z,28.85
2019-04-29T20:38:50.288Z,27.75
2019-04-29T20:41:30.069Z,27.90
2019-04-29T20:43:46.605Z,33.02
2019-04-29T20:46:15.956Z,33.10
2019-04-29T20:48:42.989Z,36.10
2019-04-29T20:51:13.602Z,26.70
2019-04-29T20:53:41.052Z,24.77
2019-04-29T20:56:12.035Z,23.02
2019-04-29T20:58:37.189Z,24.15
2019-04-29T21:01:10.861Z,29.52
2019-04-29T21:03:35.825Z,32.65
2019-04-29T21:06:04.541Z,36.83
2019-04-29T21:08:32.145Z,36.73
2019-04-29T21:11:01.105Z,31.12
2019-04-29T21:13:48.800Z,96.20
2019-04-29T21:16:22.812Z,74.67
2019-04-29T21:18:53.038Z,46.83
2019-04-29T21:21:20.945Z,27.90
2019-04-29T21:23:48.357Z,22.52
2019-04-29T21:26:15.856Z,17.50
2019-04-29T21:28:46.527Z,16.42
2019-04-29T21:31:16.660Z,15.55
2019-04-29T21:33:41.098Z,15.93
2019-04-29T21:36:15.317Z,16.55
2019-04-29T21:39:01.854Z,15.60
2019-04-29T21:41:29.450Z,16.82
2019-04-29T21:43:56.653Z,17.37
2019-04-29T21:46:27.912Z,16.60
2019-04-29T21:48:52.513Z,18.98
2019-04-29T21:51:19.434Z,24.10
2019-04-29T21:53:47.069Z,26.52
2019-04-29T21:56:16.035Z,26.25
2019-04-29T21:58:43.083Z,24.92
2019-04-29T22:01:10.201Z,22.87
2019-04-29T22:03:37.312Z,23.65
2019-04-29T22:06:04.579Z,22.05
2019-04-29T22:08:31.676Z,23.67
2019-04-29T22:11:04.901Z,23.20
2019-04-29T22:13:30.700Z,24.52
2019-04-29T22:15:57.387Z,26.52
2019-04-29T22:18:25.819Z,27.40
2019-04-29T22:20:52.870Z,19.67
2019-04-29T22:23:19.979Z,30.95
2019-04-29T22:25:47.402Z,22.85
2019-04-29T22:28:16.024Z,25.00
2019-04-29T22:30:45.289Z,31.27
2019-04-29T22:33:12.719Z,25.65
2019-04-29T22:35:40.852Z,24.05
2019-04-29T22:38:12.484Z,19.17
2019-04-29T22:40:40.945Z,16.40
2019-04-29T22:43:14.281Z,27.60
2019-04-29T22:45:40.831Z,19.30
2019-04-29T22:48:14.867Z,18.42
2019-04-29T22:50:38.271Z,18.62
2019-04-29T22:53:08.739Z,25.72
2019-04-29T22:55:37.174Z,30.43
2019-04-29T22:58:08.130Z,23.07
2019-04-29T23:00:33.873Z,16.70
2019-04-29T23:03:02.417Z,17.55
2019-04-29T23:05:30.361Z,21.07
2019-04-29T23:08:00.222Z,20.72
2019-04-29T23:10:28.048Z,20.30
2019-04-29T23:12:57.450Z,19.73
2019-04-29T23:15:26.044Z,22.35
2019-04-29T23:17:53.260Z,25.00
2019-04-29T23:20:28.862Z,25.95
2019-04-29T23:22:57.944Z,26.07
2019-04-29T23:25:29.925Z,25.60
2019-04-29T23:27:56.017Z,27.22
2019-04-29T23:30:25.131Z,26.75
2019-04-29T23:32:52.255Z,25.60
2019-04-29T23:35:19.328Z,27.80
2019-04-29T23:37:46.230Z,26.17
2019-04-29T23:40:13.631Z,25.20
2019-04-29T23:42:43.701Z,25.90
2019-04-29T23:45:18.719Z,28.27
2019-04-29T23:47:41.886Z,29.65
2019-04-29T23:50:08.044Z,30.35
2019-04-29T23:52:37.250Z,31.48
2019-04-29T23:55:07.787Z,40.25
2019-04-29T23:57:55.483Z,38.33
